Boonton Township, New Jersey
Current Conditions -  °F | °C
As of 12:53 PM on Wednesday 28 Jan 2015 (Local Time) from KCDW Reporting Station
Clear Clear  
Wind Chill: 19°   Ceiling: Unl
Heat Index: 29°   Visibility: 10mi
Dew Point:   Wind: 12mph
Humidity: 38%   Direction: 320°NW
Pressure: 30.07"   Gusts: NA
Location:  40.929°N, 74.4211°W
Report Text: KCDW 281753Z AUTO 32010KT 10SM CLR M02/M14 A3007 RMK AO2 SLP191 T10171144 11017 21089 51005 TSNO
Loading
Personal Weather Stations






























Interactive Weather Map New forecast layout! Learn more

10-Day Weather Forecast

Advertisements
Track Severe Weather on mobile